createdAt,value
2018-05-01T00:02:09.450Z,78.70
2018-05-01T00:04:37.175Z,79.20
2018-05-01T00:07:04.138Z,79.20
2018-05-01T00:09:31.105Z,79.70
2018-05-01T00:11:58.072Z,79.20
2018-05-01T00:14:25.025Z,80.00
2018-05-01T00:16:52.771Z,79.90
2018-05-01T00:19:20.498Z,80.40
2018-05-01T00:21:47.454Z,80.30
2018-05-01T00:24:15.626Z,80.50
2018-05-01T00:26:43.030Z,80.40
2018-05-01T00:29:10.443Z,80.50
2018-05-01T00:31:37.851Z,81.20
2018-05-01T00:34:05.264Z,81.20
2018-05-01T00:36:32.994Z,81.10
2018-05-01T00:38:59.974Z,81.70
2018-05-01T00:41:26.942Z,81.20
2018-05-01T00:43:53.910Z,82.10
2018-05-01T00:46:21.638Z,82.60
2018-05-01T00:48:48.635Z,83.30
2018-05-01T00:51:15.595Z,83.00
2018-05-01T00:53:42.578Z,83.20
2018-05-01T00:56:09.555Z,83.50
2018-05-01T00:58:36.539Z,84.50
2018-05-01T01:01:03.490Z,84.30
2018-05-01T01:03:30.453Z,84.80
2018-05-01T01:05:57.414Z,85.30
2018-05-01T01:08:25.143Z,85.40
2018-05-01T01:10:52.543Z,85.40
2018-05-01T01:13:19.942Z,85.80
2018-05-01T01:15:48.119Z,90.00
2018-05-01T01:18:15.536Z,90.00
2018-05-01T01:20:42.942Z,91.50
2018-05-01T01:23:10.353Z,92.90
2018-05-01T01:25:37.766Z,93.60
2018-05-01T01:28:05.939Z,95.10
2018-05-01T01:30:33.355Z,95.10
2018-05-01T01:33:01.541Z,96.40
2018-05-01T01:35:28.459Z,96.40
2018-05-01T01:37:55.371Z,96.90
2018-05-01T01:40:22.295Z,97.30
2018-05-01T01:42:49.223Z,97.80
2018-05-01T01:45:16.134Z,97.60
2018-05-01T01:47:43.042Z,98.20
2018-05-01T01:50:09.957Z,98.90
2018-05-01T01:52:36.879Z,99.10
2018-05-01T01:55:03.797Z,98.90
2018-05-01T01:57:30.711Z,99.30
2018-05-01T01:59:57.631Z,99.40
2018-05-01T02:02:25.313Z,99.80
2018-05-01T02:04:52.995Z,99.90
2018-05-01T02:07:19.903Z,99.90
2018-05-01T02:09:46.828Z,99.90
2018-05-01T02:12:13.748Z,99.90
2018-05-01T02:14:40.687Z,99.90
2018-05-01T02:17:07.611Z,99.90
2018-05-01T02:19:34.706Z,99.90
2018-05-01T02:22:02.382Z,99.90
2018-05-01T02:24:29.307Z,99.90
2018-05-01T02:26:56.235Z,99.90
2018-05-01T02:29:23.914Z,99.90
2018-05-01T02:31:50.843Z,99.90
2018-05-01T02:34:17.756Z,99.90
2018-05-01T02:36:44.659Z,99.90
2018-05-01T02:39:12.335Z,99.90
2018-05-01T02:41:39.284Z,99.90
2018-05-01T02:44:06.190Z,99.90
2018-05-01T02:46:33.103Z,99.90
2018-05-01T02:49:00.774Z,99.90
2018-05-01T02:51:27.703Z,99.90
2018-05-01T02:53:54.619Z,99.90
2018-05-01T02:56:21.528Z,99.90
2018-05-01T02:58:49.201Z,99.90
2018-05-01T03:01:16.148Z,99.90
2018-05-01T03:03:43.055Z,99.90
2018-05-01T03:06:09.981Z,99.90
2018-05-01T03:08:37.665Z,99.90
2018-05-01T03:11:04.591Z,99.90
2018-05-01T03:13:31.514Z,99.90
2018-05-01T03:15:58.434Z,99.90
2018-05-01T03:18:25.367Z,99.90
2018-05-01T03:20:52.302Z,99.90
2018-05-01T03:23:19.210Z,99.90
2018-05-01T03:25:46.895Z,99.90
2018-05-01T03:28:13.813Z,99.90
2018-05-01T03:30:40.723Z,99.90
2018-05-01T03:33:07.630Z,99.90
2018-05-01T03:35:35.294Z,99.90
2018-05-01T03:38:02.218Z,99.90
2018-05-01T03:40:29.139Z,99.90
2018-05-01T03:42:56.043Z,99.90
2018-05-01T03:45:22.949Z,99.90
2018-05-01T03:47:49.882Z,99.90
2018-05-01T03:50:16.799Z,99.90
2018-05-01T03:52:43.717Z,99.90
2018-05-01T03:55:10.705Z,99.90
2018-05-01T03:57:37.547Z,99.90
2018-05-01T04:00:05.226Z,99.90
2018-05-01T04:02:32.139Z,99.90
2018-05-01T04:04:59.079Z,99.90
2018-05-01T04:07:25.998Z,99.90
2018-05-01T04:09:52.903Z,99.90
2018-05-01T04:12:20.602Z,99.90
2018-05-01T04:14:47.508Z,99.90
2018-05-01T04:17:14.414Z,99.90
2018-05-01T04:19:42.083Z,99.90
2018-05-01T04:22:08.999Z,99.90
2018-05-01T04:24:35.924Z,99.90
2018-05-01T04:27:02.831Z,99.90
2018-05-01T04:29:29.783Z,99.90
2018-05-01T04:31:57.463Z,99.90
2018-05-01T04:34:24.366Z,99.90
2018-05-01T04:36:52.046Z,99.90
2018-05-01T04:39:18.955Z,99.90
2018-05-01T04:41:45.858Z,99.90
2018-05-01T04:44:13.538Z,99.90
2018-05-01T04:46:40.451Z,99.90
2018-05-01T04:49:07.354Z,99.90
2018-05-01T04:51:35.090Z,99.90
2018-05-01T04:54:03.510Z,99.90
2018-05-01T04:56:30.422Z,99.90
2018-05-01T04:58:57.330Z,99.90
2018-05-01T05:01:24.235Z,99.90
2018-05-01T05:03:51.143Z,99.90
2018-05-01T05:06:18.055Z,99.90
2018-05-01T05:08:45.000Z,99.90
2018-05-01T05:11:11.906Z,99.90
2018-05-01T05:13:38.815Z,99.90
2018-05-01T05:16:06.494Z,99.90
2018-05-01T05:18:33.402Z,99.90
2018-05-01T05:21:00.314Z,99.90
2018-05-01T05:23:27.991Z,99.90
2018-05-01T05:25:54.899Z,99.90
2018-05-01T05:28:22.581Z,99.90
2018-05-01T05:30:49.491Z,99.90
2018-05-01T05:33:16.395Z,99.90
2018-05-01T05:35:44.083Z,99.90
2018-05-01T05:38:10.999Z,99.90
2018-05-01T05:40:37.916Z,99.90
2018-05-01T05:43:05.597Z,99.90
2018-05-01T05:45:32.502Z,99.90
2018-05-01T05:47:59.415Z,99.90
2018-05-01T05:50:27.098Z,99.90
2018-05-01T05:52:54.007Z,99.90
2018-05-01T05:55:20.926Z,99.90
2018-05-01T05:57:48.599Z,99.90
2018-05-01T06:00:15.507Z,99.90
2018-05-01T06:02:42.421Z,99.90
2018-05-01T06:05:10.093Z,99.90
2018-05-01T06:07:37.030Z,99.90
2018-05-01T06:10:04.674Z,99.90
2018-05-01T06:12:31.593Z,99.90
2018-05-01T06:14:58.507Z,99.90
2018-05-01T06:17:26.199Z,99.90
2018-05-01T06:19:53.095Z,99.90
2018-05-01T06:22:20.007Z,99.90
2018-05-01T06:24:47.687Z,99.90
2018-05-01T06:27:14.612Z,99.90
2018-05-01T06:29:41.515Z,99.90
2018-05-01T06:32:09.239Z,99.90
2018-05-01T06:34:36.160Z,99.90
2018-05-01T06:37:03.070Z,99.90
2018-05-01T06:39:29.974Z,99.90
2018-05-01T06:41:56.891Z,99.90
2018-05-01T06:44:24.559Z,99.90
2018-05-01T06:46:51.479Z,99.90
2018-05-01T06:49:18.391Z,99.90
2018-05-01T06:51:45.898Z,99.90
2018-05-01T06:54:12.606Z,99.90
2018-05-01T06:56:39.522Z,99.90
2018-05-01T06:59:06.419Z,99.90
2018-05-01T07:01:34.175Z,99.90
2018-05-01T07:04:01.078Z,99.90
2018-05-01T07:06:27.987Z,99.90
2018-05-01T07:08:54.895Z,99.90
2018-05-01T07:11:21.803Z,99.90
2018-05-01T07:13:48.727Z,99.90
2018-05-01T07:16:15.647Z,99.90
2018-05-01T07:18:43.315Z,99.90
2018-05-01T07:21:10.252Z,99.90
2018-05-01T07:23:37.147Z,99.90
2018-05-01T07:26:04.843Z,99.90
2018-05-01T07:28:31.538Z,99.90
2018-05-01T07:30:58.238Z,99.90
2018-05-01T07:33:24.943Z,99.90
2018-05-01T07:35:51.645Z,99.90
2018-05-01T07:38:18.376Z,99.80
2018-05-01T07:40:45.074Z,99.40
2018-05-01T07:43:11.790Z,99.60
2018-05-01T07:45:38.502Z,99.70
2018-05-01T07:48:05.246Z,99.80
2018-05-01T07:50:32.156Z,99.60
2018-05-01T07:52:59.823Z,99.00
2018-05-01T07:55:26.528Z,99.00
2018-05-01T07:57:53.993Z,98.60
2018-05-01T08:00:20.777Z,98.60
2018-05-01T08:02:47.447Z,98.50
2018-05-01T08:05:14.142Z,98.50
2018-05-01T08:07:40.862Z,98.10
2018-05-01T08:10:08.321Z,98.40
2018-05-01T08:12:35.068Z,98.40
2018-05-01T08:15:01.742Z,98.30
2018-05-01T08:17:29.205Z,98.00
2018-05-01T08:19:55.965Z,98.00
2018-05-01T08:22:22.670Z,98.20
2018-05-01T08:24:49.574Z,97.80
2018-05-01T08:27:17.048Z,96.80
2018-05-01T08:29:43.746Z,96.70
2018-05-01T08:32:11.214Z,96.30
2018-05-01T08:34:38.134Z,96.30
2018-05-01T08:37:05.619Z,96.50
2018-05-01T08:39:33.312Z,96.60
2018-05-01T08:42:00.978Z,96.50
2018-05-01T08:44:27.910Z,96.50
2018-05-01T08:46:54.814Z,96.50
2018-05-01T08:49:22.489Z,95.80
2018-05-01T08:51:49.394Z,95.80
2018-05-01T08:54:16.118Z,95.80
2018-05-01T08:56:43.034Z,95.00
2018-05-01T08:59:10.522Z,95.10
2018-05-01T09:01:37.224Z,95.10
2018-05-01T09:04:04.014Z,94.30
2018-05-01T09:06:31.395Z,93.70
2018-05-01T09:08:58.111Z,93.70
2018-05-01T09:11:25.024Z,93.50
2018-05-01T09:13:52.708Z,93.70
2018-05-01T09:16:19.402Z,93.70
2018-05-01T09:18:46.867Z,93.80
2018-05-01T09:21:13.575Z,93.80
2018-05-01T09:23:40.286Z,93.60
2018-05-01T09:26:07.769Z,93.90
2018-05-01T09:28:34.477Z,94.00
2018-05-01T09:31:01.218Z,93.30
2018-05-01T09:33:28.159Z,93.00
2018-05-01T09:35:55.083Z,92.80
2018-05-01T09:38:21.983Z,92.60
2018-05-01T09:40:48.698Z,93.20
2018-05-01T09:43:16.379Z,92.80
2018-05-01T09:45:43.081Z,92.80
2018-05-01T09:48:09.816Z,92.00
2018-05-01T09:50:36.706Z,91.70
2018-05-01T09:53:04.887Z,92.60
2018-05-01T09:55:31.870Z,92.20
2018-05-01T09:57:58.838Z,92.40
2018-05-01T10:00:27.011Z,92.60
2018-05-01T10:02:53.971Z,92.60
2018-05-01T10:05:21.421Z,92.80
2018-05-01T10:07:48.827Z,92.40
2018-05-01T10:10:15.801Z,92.40
2018-05-01T10:12:42.754Z,92.00
2018-05-01T10:15:09.726Z,92.20
2018-05-01T10:17:37.131Z,92.70
2018-05-01T10:20:04.526Z,91.90
2018-05-01T10:22:31.488Z,93.00
2018-05-01T10:24:58.891Z,92.80
2018-05-01T10:27:25.855Z,91.70
2018-05-01T10:29:53.275Z,92.20
2018-05-01T10:32:20.227Z,91.80
2018-05-01T10:34:47.196Z,91.70
2018-05-01T10:37:14.910Z,91.70
2018-05-01T10:39:42.310Z,91.70
2018-05-01T10:42:09.717Z,91.00
2018-05-01T10:44:37.884Z,91.50
2018-05-01T10:47:05.603Z,91.00
2018-05-01T10:49:32.570Z,91.00
2018-05-01T10:51:59.526Z,91.30
2018-05-01T10:54:26.495Z,91.50
2018-05-01T10:56:53.464Z,91.20
2018-05-01T10:59:20.863Z,89.90
2018-05-01T11:01:47.829Z,90.40
2018-05-01T11:04:14.786Z,90.80
2018-05-01T11:06:41.742Z,90.90
2018-05-01T11:09:09.150Z,87.70
2018-05-01T11:11:36.106Z,87.20
2018-05-01T11:14:03.503Z,88.00
2018-05-01T11:16:30.917Z,85.60
2018-05-01T11:18:58.331Z,84.90
2018-05-01T11:21:25.747Z,86.20
2018-05-01T11:23:53.158Z,86.10
2018-05-01T11:26:21.021Z,86.40
2018-05-01T11:28:47.930Z,86.40
2018-05-01T11:31:15.655Z,86.60
2018-05-01T11:33:42.698Z,86.40
2018-05-01T11:36:10.054Z,85.50
2018-05-01T11:38:37.438Z,83.60
2018-05-01T11:41:04.847Z,83.20
2018-05-01T11:43:32.251Z,83.40
2018-05-01T11:45:59.672Z,84.60
2018-05-01T11:48:27.084Z,85.10
2018-05-01T11:50:54.490Z,83.90
2018-05-01T11:53:21.902Z,84.20
2018-05-01T11:55:49.347Z,85.30
2018-05-01T11:58:16.702Z,87.00
2018-05-01T12:00:44.112Z,87.10
2018-05-01T12:03:11.074Z,84.30
2018-05-01T12:05:38.479Z,85.10
2018-05-01T12:08:05.435Z,85.20
2018-05-01T12:10:32.423Z,86.60
2018-05-01T12:13:00.138Z,83.70
2018-05-01T12:15:27.878Z,81.00
2018-05-01T12:17:55.280Z,80.80
2018-05-01T12:20:22.688Z,79.70
2018-05-01T12:22:50.087Z,80.40
2018-05-01T12:25:17.586Z,80.30
2018-05-01T12:27:44.983Z,79.40
2018-05-01T12:30:12.387Z,78.80
2018-05-01T12:32:39.346Z,79.30
2018-05-01T12:35:06.747Z,76.40
2018-05-01T12:37:33.702Z,77.20
2018-05-01T12:40:01.130Z,77.30
2018-05-01T12:42:28.212Z,76.30
2018-05-01T12:44:55.575Z,75.20
2018-05-01T12:47:23.001Z,75.70
2018-05-01T12:49:50.711Z,73.30
2018-05-01T12:52:17.681Z,73.30
2018-05-01T12:54:45.839Z,75.00
2018-05-01T12:57:14.017Z,76.70
2018-05-01T12:59:41.431Z,76.60
2018-05-01T13:02:09.594Z,76.50
2018-05-01T13:04:37.772Z,76.40
2018-05-01T13:07:04.727Z,76.40
2018-05-01T13:09:32.126Z,74.70
2018-05-01T13:11:59.851Z,69.70
2018-05-01T13:14:26.818Z,69.70
2018-05-01T13:16:53.774Z,68.10
2018-05-01T13:19:20.734Z,67.40
2018-05-01T13:21:47.702Z,66.30
2018-05-01T13:24:15.112Z,65.80
2018-05-01T13:26:42.833Z,64.40
2018-05-01T13:29:09.786Z,64.50
2018-05-01T13:31:36.754Z,64.60
2018-05-01T13:34:03.710Z,65.20
2018-05-01T13:36:30.670Z,62.40
2018-05-01T13:38:58.069Z,60.50
2018-05-01T13:41:25.026Z,60.60
2018-05-01T13:43:51.990Z,63.60
2018-05-01T13:46:18.952Z,63.30
2018-05-01T13:48:45.910Z,59.40
2018-05-01T13:51:13.465Z,59.70
2018-05-01T13:53:40.866Z,58.20
2018-05-01T13:56:08.285Z,59.50
2018-05-01T13:58:36.006Z,58.80
2018-05-01T14:01:02.958Z,58.90
2018-05-01T14:03:31.132Z,61.70
2018-05-01T14:05:58.861Z,60.20
2018-05-01T14:08:26.267Z,60.20
2018-05-01T14:10:53.230Z,61.50
2018-05-01T14:13:20.247Z,58.30
2018-05-01T14:15:47.653Z,57.30
2018-05-01T14:18:14.614Z,57.90
2018-05-01T14:20:42.035Z,57.10
2018-05-01T14:23:09.016Z,58.30
2018-05-01T14:25:37.252Z,59.80
2018-05-01T14:28:05.359Z,59.50
2018-05-01T14:30:32.326Z,59.50
2018-05-01T14:32:59.286Z,60.70
2018-05-01T14:35:26.686Z,60.60
2018-05-01T14:37:54.115Z,59.20
2018-05-01T14:40:21.104Z,61.40
2018-05-01T14:42:48.485Z,59.60
2018-05-01T14:45:15.449Z,58.10
2018-05-01T18:41:29.929Z,65.80
2018-05-01T19:38:41.230Z,71.40
2018-05-01T19:43:39.212Z,72.50
2018-05-01T19:46:08.017Z,72.30
2018-05-01T19:48:36.863Z,72.50
2018-05-01T19:51:05.660Z,72.80
2018-05-01T19:53:34.423Z,72.80
2018-05-01T19:56:03.199Z,74.10
2018-05-01T19:58:31.999Z,73.40
2018-05-01T20:01:00.790Z,74.40
2018-05-01T20:03:29.584Z,74.10
2018-05-01T23:14:57.264Z,97.90
